首页
METAR-TAF:

METAR-TAF

机场 :

德拉姆堡, 紐約州, 美国

纬度: 44-03N, 经度: 075-44W, 海拔: 207米

当前天气观测

该预报发布于26分钟前的13:56 UTC
风速5节,风向南转南东
温度 -17°C
湿度 77%
气压 1030 hPa
能見度: 16.1公里
阴天层高于12000英尺

METAR: KGTB 211356Z AUTO 16005KT 10SM OVC120 M17/M20 A3043 RMK AO2 SLP322 T11681196 $

时间: 09:22 (14:22 UTC)

预报

该预报发布于5小时和22分钟前的09:00 UTC
预报有效从21日的 09点(UTC)到 22日的 15点(UTC)
风速6节,风向多变
能见度10公里或以上
少量云层高于12000英尺
成为
从 21日的 17点(UTC)到 21日的 18点(UTC)
风速12节,风向西转西南
能见度10公里或以上
散云层高于2000英尺
成为
从 21日的 20点(UTC)到 21日的 21点(UTC)
风速9节,风向西南
能見度: 9000
阴天层高于1500英尺
小雪
短暂存在
从 22日的 04点(UTC)到 22日的 07点(UTC)
能見度: 8000
(小) 冻, 毛毛雨
成为
从 22日的 08点(UTC)到 22日的 09点(UTC)
风速9节,风向西转西南
能見度: 8000
阴天层高于1000英尺
小雪
短暂存在
从 22日的 11点(UTC)到 22日的 14点(UTC)
小雪, 冰粒

TAF: KGTB 210900Z 2109/2215 VRB06KT 9999 FEW120 QNH3038INS BECMG 2117/2118 25012KT 9999 SCT020 QNH3036INS BECMG 2120/2121 22009KT 9000 -SN OVC015 620156 510203 QNH3032INS TEMPO 2204/2207 8000 -FZDZ 660006 BECMG 2208/2209 24009KT 8000 -SN OVC010 620108 QNH3028INS TEMPO 2211/2214 -SNPL TXM02/2208Z TNM15/2111Z

超过4000个机场的气象观测和天气预报(METAR&TAF报告)。

可查询的气象台以黄色和红色小点在地图上表示。

将鼠标移到小点上方,可查看气象台名称。

然后点击查看天气观测和预报。

如需切换地图:点击带黑十字的绿色按钮放大地图;点击带横线的绿色按钮缩小地图;或者点击绿色箭头查看邻近地区的地图。


METAR-TAF: